Time;durP1;ratioP1;P1;durP2;ratioP2;P2;SDS_P1;SDS_P2;PMS_P1;PMS_P2;Temp;Humidity;BMP_temperature;BMP_pressure;BME280_temperature;BME280_humidity;BME280_pressure;Samples;Min_cycle;Max_cycle;Signal;HPM_P1;HPM_P2
2022/01/21 00:00:19;;;;;;;6.73;2.73;;;;;;;0.43;99.11;151481.31;5092321;28;20825;-81
2022/01/21 00:02:55;;;;;;;5.70;2.90;;;;;;;0.43;98.47;151480.03;5125042;28;20953;-81
2022/01/21 00:05:32;;;;;;;5.23;2.90;;;;;;;0.41;98.90;151474.91;5055281;28;21004;-81
2022/01/21 00:08:07;;;;;;;3.80;2.50;;;;;;;0.34;99.63;151458.25;5122927;28;20562;-81
2022/01/21 00:10:43;;;;;;;2.97;2.30;;;;;;;0.31;100.00;151449.25;5082640;28;20438;-81
2022/01/21 00:13:23;;;;;;;5.10;3.10;;;;;;;0.27;100.00;151440.25;5059918;28;20465;-81
2022/01/21 00:15:58;;;;;;;5.10;2.70;;;;;;;0.26;99.84;151436.41;5091396;28;20437;-81
2022/01/21 00:18:35;;;;;;;8.87;2.50;;;;;;;0.24;99.89;151431.28;5077528;28;20443;-81
2022/01/21 00:30:14;;;;;;;5.33;2.27;;;;;;;0.16;100.00;151412.00;5077167;28;20441;-81
2022/01/21 00:32:50;;;;;;;2.50;2.30;;;;;;;0.18;99.51;151417.19;5058594;28;20934;-80
2022/01/21 00:35:27;;;;;;;6.20;2.97;;;;;;;0.18;98.95;151415.88;5091155;28;20773;-80
2022/01/21 00:38:04;;;;;;;5.00;3.07;;;;;;;0.14;100.00;151405.59;5062295;28;20468;-80
2022/01/21 00:40:40;;;;;;;7.83;4.33;;;;;;;0.11;98.36;151397.94;5074978;28;20437;-80
2022/01/21 00:43:20;;;;;;;4.60;2.80;;;;;;;0.13;100.00;151403.06;5077547;28;20476;-81
2022/01/21 00:45:56;;;;;;;7.70;3.33;;;;;;;0.14;99.79;151406.88;5093534;28;20474;-80
2022/01/21 00:48:32;;;;;;;6.37;2.70;;;;;;;0.17;100.00;151413.28;5073458;28;20470;-80
2022/01/21 00:51:08;;;;;;;3.53;2.30;;;;;;;0.17;99.60;151414.59;5106982;28;20967;-80
2022/01/21 00:53:45;;;;;;;6.33;2.87;;;;;;;0.21;100.00;151423.59;5107113;28;20482;-80
2022/01/21 00:56:20;;;;;;;4.23;2.70;;;;;;;0.21;100.00;151423.59;5127219;27;20530;-82
2022/01/21 00:58:56;;;;;;;4.07;2.70;;;;;;;0.27;100.00;151438.97;5077328;28;20455;-81
2022/01/21 01:01:32;;;;;;;6.10;2.43;;;;;;;0.26;98.50;151436.41;5093387;28;20428;-81
2022/01/21 01:04:08;;;;;;;7.10;3.40;;;;;;;0.28;100.00;151441.53;5067821;28;20474;-81
2022/01/21 01:06:43;;;;;;;3.57;2.37;;;;;;;0.22;98.55;151427.41;5090804;28;20453;-81
2022/01/21 01:09:20;;;;;;;6.93;3.17;;;;;;;0.26;100.00;151436.41;5072918;28;20504;-81
2022/01/21 01:12:13;;;;;;;7.23;2.90;;;;;;;0.29;100.00;151444.13;5070719;28;20466;-81
2022/01/21 01:20:35;;;;;;;9.87;3.20;;;;;;;0.31;99.01;151449.25;5093150;28;20408;-81
2022/01/21 01:23:22;;;;;;;4.00;2.57;;;;;;;0.34;97.40;151458.25;5077026;28;20439;-81
2022/01/21 01:28:54;;;;;;;3.63;2.70;;;;;;;0.37;99.07;151465.91;5060743;28;20513;-81
2022/01/21 01:31:29;;;;;;;5.77;2.63;;;;;;;0.34;98.74;151456.97;5077282;28;20923;-81
2022/01/21 01:34:04;;;;;;;5.23;2.40;;;;;;;0.36;97.31;151462.09;5076478;28;20943;-81
2022/01/21 01:36:42;;;;;;;3.60;1.93;;;;;;;0.38;99.02;151468.50;5075106;28;20830;-81
2022/01/21 01:39:30;;;;;;;3.27;2.10;;;;;;;0.38;97.06;151467.19;5091345;28;20440;-81
2022/01/21 01:42:35;;;;;;;4.30;2.47;;;;;;;0.42;98.07;151477.50;5076584;28;20522;-81
2022/01/21 01:51:06;;;;;;;3.20;2.20;;;;;;;0.40;99.20;151472.31;5076961;28;20501;-81
2022/01/21 01:53:48;;;;;;;5.47;2.47;;;;;;;0.42;97.87;151477.50;5077335;28;20788;-81
2022/01/21 01:56:27;;;;;;;5.10;3.20;;;;;;;0.39;97.56;151469.78;5098873;28;20448;-81
2022/01/21 01:59:04;;;;;;;6.63;3.63;;;;;;;0.39;98.70;151469.78;5131141;27;20436;-81
2022/01/21 02:01:40;;;;;;;5.80;2.57;;;;;;;0.43;98.21;151480.03;5090900;28;20475;-81
2022/01/21 02:04:15;;;;;;;3.67;2.70;;;;;;;0.43;100.00;151480.03;5091775;28;20463;-81
2022/01/21 02:06:51;;;;;;;6.70;3.37;;;;;;;0.38;98.26;151468.50;5103002;28;20434;-81
2022/01/21 02:09:27;;;;;;;4.57;2.63;;;;;;;0.39;97.95;151469.78;5095963;28;20471;-81
2022/01/21 02:12:03;;;;;;;4.93;2.83;;;;;;;0.43;100.00;151480.03;5113187;28;20409;-81
2022/01/21 02:14:48;;;;;;;5.83;3.20;;;;;;;0.41;100.00;151476.22;5112862;28;20480;-81
2022/01/21 02:23:09;;;;;;;5.40;2.77;;;;;;;0.39;100.00;151471.09;5064270;28;20454;-80
2022/01/21 02:25:45;;;;;;;3.30;2.90;;;;;;;0.37;100.00;151464.66;5108903;27;20473;-80
2022/01/21 02:28:21;;;;;;;5.20;3.03;;;;;;;0.34;100.00;151456.97;5110573;27;20991;-81
2022/01/21 02:30:59;;;;;;;3.27;2.40;;;;;;;0.34;99.67;151456.97;5110515;27;20795;-81
2022/01/21 02:33:35;;;;;;;4.50;2.93;;;;;;;0.38;100.00;151467.19;5076723;28;20433;-81
2022/01/21 02:36:10;;;;;;;4.40;2.70;;;;;;;0.34;100.00;151456.97;5127937;27;20466;-81
2022/01/21 02:38:48;;;;;;;4.67;3.17;;;;;;;0.32;100.00;151451.84;5064935;28;20791;-81
2022/01/21 02:41:24;;;;;;;6.50;2.90;;;;;;;0.34;100.00;151456.97;5075400;28;20447;-81
2022/01/21 02:43:59;;;;;;;4.10;2.53;;;;;;;0.33;100.00;151455.66;5092450;28;20546;-81
2022/01/21 02:46:40;;;;;;;4.53;2.73;;;;;;;0.35;100.00;151460.78;5075259;28;20437;-81
2022/01/21 02:49:15;;;;;;;6.57;3.20;;;;;;;0.33;100.00;151454.38;5076237;28;20469;-81
2022/01/21 02:51:51;;;;;;;4.90;3.40;;;;;;;0.35;100.00;151459.50;5079332;28;20439;-81
2022/01/21 02:54:30;;;;;;;5.87;2.77;;;;;;;0.33;100.00;151454.38;5081854;28;20448;-81
2022/01/21 02:57:07;;;;;;;4.90;2.83;;;;;;;0.33;100.00;151454.38;5074520;28;20931;-81
2022/01/21 02:59:44;;;;;;;3.83;2.27;;;;;;;0.29;100.00;151444.13;5075793;28;20454;-81
2022/01/21 03:02:19;;;;;;;5.60;2.53;;;;;;;0.27;100.00;151438.97;5070323;28;20437;-81
2022/01/21 03:05:05;;;;;;;6.10;3.17;;;;;;;0.27;99.22;151440.25;5061362;28;20457;-81
2022/01/21 03:07:41;;;;;;;5.50;2.83;;;;;;;0.26;99.92;151436.41;5083394;28;20437;-81
2022/01/21 03:10:18;;;;;;;6.93;3.20;;;;;;;0.26;100.00;151436.41;5076468;28;20526;-81
2022/01/21 03:12:53;;;;;;;6.23;2.73;;;;;;;0.28;100.00;151441.53;5075862;28;20451;-81
2022/01/21 03:15:29;;;;;;;4.53;2.30;;;;;;;0.24;100.00;151431.28;5085510;28;20440;-81
2022/01/21 03:18:05;;;;;;;5.73;2.53;;;;;;;0.23;100.00;151428.72;5108916;28;20534;-81
2022/01/21 03:20:40;;;;;;;6.50;2.60;;;;;;;0.27;100.00;151438.97;5110075;28;20784;-81
2022/01/21 03:23:19;;;;;;;6.43;2.90;;;;;;;0.29;100.00;151444.13;5075514;28;20448;-81
2022/01/21 03:25:56;;;;;;;5.03;2.57;;;;;;;0.29;100.00;151444.13;5073622;28;20521;-80
2022/01/21 03:28:51;;;;;;;11.70;3.63;;;;;;;0.28;99.37;151441.53;5109712;28;20469;-80
2022/01/21 03:31:27;;;;;;;4.73;2.90;;;;;;;0.32;100.00;151453.06;5107022;28;20805;-81
2022/01/21 03:34:04;;;;;;;8.03;2.97;;;;;;;0.31;100.00;151449.25;5081347;28;20448;-81
2022/01/21 03:36:42;;;;;;;3.50;2.30;;;;;;;0.30;100.00;151446.66;5064630;28;20959;-81
2022/01/21 03:39:19;;;;;;;4.20;2.67;;;;;;;0.31;100.00;151449.25;5054974;28;20449;-81
2022/01/21 03:41:56;;;;;;;9.37;3.07;;;;;;;0.33;100.00;151455.66;5079568;28;20436;-81
2022/01/21 03:44:32;;;;;;;7.00;2.80;;;;;;;0.33;98.57;151454.38;5075540;28;20456;-81
2022/01/21 03:47:07;;;;;;;4.30;3.30;;;;;;;0.33;98.79;151454.38;5074940;28;20440;-81
2022/01/21 03:49:53;;;;;;;3.70;2.30;;;;;;;0.30;98.62;151446.66;5125595;28;20704;-81
2022/01/21 03:52:28;;;;;;;5.17;2.70;;;;;;;0.27;100.00;151438.97;5109086;28;20483;-81
2022/01/21 03:55:05;;;;;;;5.90;3.83;;;;;;;0.28;100.00;151442.84;5095300;28;20440;-81
2022/01/21 03:57:42;;;;;;;6.60;3.27;;;;;;;0.25;99.54;151435.13;5145615;27;20430;-81
2022/01/21 04:00:20;;;;;;;4.30;2.90;;;;;;;0.24;99.82;151432.53;5115154;28;20436;-81
2022/01/21 04:02:58;;;;;;;3.90;3.03;;;;;;;0.25;100.00;151435.13;5131373;27;20440;-81
2022/01/21 04:05:34;;;;;;;5.43;3.27;;;;;;;0.18;99.40;151415.88;5071682;28;20436;-81
2022/01/21 04:08:12;;;;;;;7.57;4.40;;;;;;;0.14;99.87;151406.88;5082279;28;20445;-81
2022/01/21 04:10:48;;;;;;;5.37;3.10;;;;;;;0.16;100.00;151410.75;5099655;28;20492;-81
2022/01/21 04:13:26;;;;;;;5.00;3.27;;;;;;;0.17;100.00;151413.28;5083406;28;20526;-81
2022/01/21 04:16:06;;;;;;;6.83;3.17;;;;;;;0.16;100.00;151410.75;5078367;28;20440;-81
2022/01/21 04:18:43;;;;;;;8.13;3.23;;;;;;;0.14;100.00;151406.88;5078688;28;20612;-81
2022/01/21 04:21:37;;;;;;;9.67;3.17;;;;;;;0.14;100.00;151406.88;5078444;28;20977;-81
2022/01/21 04:24:15;;;;;;;7.47;3.00;;;;;;;0.14;100.00;151405.59;5112272;27;20444;-81
2022/01/21 04:26:52;;;;;;;4.77;2.70;;;;;;;0.15;100.00;151408.19;5078687;28;20432;-81
2022/01/21 04:29:29;;;;;;;5.40;3.70;;;;;;;0.12;100.00;151401.75;5078350;28;20460;-81
2022/01/21 04:32:09;;;;;;;5.60;3.43;;;;;;;0.08;99.95;151390.22;5078250;28;20431;-81
2022/01/21 04:34:45;;;;;;;5.73;3.47;;;;;;;0.05;98.70;151383.81;5078452;28;20436;-81
2022/01/21 04:37:22;;;;;;;5.17;3.40;;;;;;;0.06;98.78;151385.06;5070037;28;20800;-81
2022/01/21 04:40:10;;;;;;;6.90;3.00;;;;;;;0.09;98.63;151394.06;5073283;28;20779;-81
2022/01/21 04:48:35;;;;;;;5.40;3.17;;;;;;;0.14;100.00;151405.59;5078203;28;20469;-81
2022/01/21 04:51:15;;;;;;;4.97;3.53;;;;;;;0.09;98.52;151394.06;5079359;28;20796;-81
2022/01/21 04:53:51;;;;;;;5.43;3.13;;;;;;;0.10;100.00;151395.34;5094000;28;20451;-81
2022/01/21 04:56:39;;;;;;;6.60;3.90;;;;;;;0.12;99.23;151400.47;5078138;28;20447;-81
2022/01/21 04:59:15;;;;;;;7.57;3.60;;;;;;;0.14;99.75;151405.59;5112494;27;20436;-81
2022/01/21 05:01:52;;;;;;;9.33;4.20;;;;;;;0.17;100.00;151413.28;5077886;28;20435;-81
2022/01/21 05:04:28;;;;;;;7.37;3.90;;;;;;;0.07;98.41;151387.63;5073975;28;20457;-81
2022/01/21 05:07:06;;;;;;;4.87;3.43;;;;;;;0.10;98.83;151396.63;5073508;28;20449;-81
2022/01/21 05:09:42;;;;;;;7.27;3.67;;;;;;;0.15;100.00;151408.19;5106779;27;20856;-81
2022/01/21 05:12:20;;;;;;;6.40;4.10;;;;;;;0.11;100.00;151399.16;5077041;28;20452;-81
2022/01/21 05:15:11;;;;;;;4.60;3.27;;;;;;;0.13;100.00;151403.06;5086902;28;20442;-81
2022/01/21 05:17:50;;;;;;;7.77;3.73;;;;;;;0.10;100.00;151396.63;5062532;28;20437;-81
2022/01/21 05:20:52;;;;;;;9.80;4.50;;;;;;;0.13;100.00;151403.06;5087450;28;20581;-81
2022/01/21 05:23:46;;;;;;;7.50;3.23;;;;;;;0.14;100.00;151406.88;5131617;27;20440;-81
2022/01/21 05:26:23;;;;;;;4.40;3.13;;;;;;;0.15;100.00;151408.19;5108296;28;20526;-81
2022/01/21 05:28:59;;;;;;;6.30;3.97;;;;;;;0.11;100.00;151397.94;5091773;28;20475;-81
2022/01/21 05:31:56;;;;;;;5.37;3.40;;;;;;;0.09;100.00;151392.75;5090465;28;20442;-81
2022/01/21 05:34:45;;;;;;;4.90;3.37;;;;;;;0.11;100.00;151399.16;5079557;28;20462;-81
2022/01/21 05:37:30;;;;;;;8.43;3.47;;;;;;;0.14;100.00;151406.88;5077003;28;20966;-81
2022/01/21 05:40:16;;;;;;;6.33;3.87;;;;;;;0.16;100.00;151410.75;5077655;28;20431;-81
2022/01/21 05:43:01;;;;;;;5.33;3.50;;;;;;;0.16;100.00;151410.75;5076147;28;20481;-81
2022/01/21 05:46:29;;;;;;;10.97;3.73;;;;;;;0.11;100.00;151397.94;5083103;28;20441;-81
2022/01/21 05:49:36;;;;;;;5.83;4.00;;;;;;;0.15;100.00;151408.19;5077210;28;20467;-81
2022/01/21 05:52:36;;;;;;;9.73;4.40;;;;;;;0.10;100.00;151396.63;5091822;28;20444;-81
2022/01/21 05:55:23;;;;;;;6.37;4.60;;;;;;;0.10;100.00;151395.34;5076673;28;20465;-81
2022/01/21 05:58:15;;;;;;;6.97;3.97;;;;;;;0.10;100.00;151396.63;5076303;28;20768;-81
2022/01/21 06:00:53;;;;;;;12.03;3.80;;;;;;;0.09;100.00;151394.06;5076459;28;20515;-81
2022/01/21 06:03:29;;;;;;;8.90;4.87;;;;;;;0.10;100.00;151396.63;5076152;28;20941;-81
2022/01/21 06:06:05;;;;;;;6.80;4.47;;;;;;;0.10;100.00;151395.34;5068727;28;20452;-81
2022/01/21 06:08:42;;;;;;;7.00;3.97;;;;;;;0.06;100.00;151385.06;5057052;28;20453;-81
2022/01/21 06:11:18;;;;;;;9.57;4.70;;;;;;;0.11;100.00;151397.94;5071941;28;20433;-81
2022/01/21 06:13:53;;;;;;;10.67;4.20;;;;;;;0.13;100.00;151404.34;5074114;28;20444;-81
2022/01/21 06:16:29;;;;;;;5.63;4.00;;;;;;;0.12;100.00;151400.47;5076373;28;20450;-81
2022/01/21 06:19:05;;;;;;;7.13;4.23;;;;;;;0.10;100.00;151395.34;5090435;28;20460;-81
2022/01/21 06:21:40;;;;;;;10.23;4.53;;;;;;;0.11;100.00;151397.94;5090918;28;20452;-81
2022/01/21 06:24:17;;;;;;;6.03;4.17;;;;;;;0.11;100.00;151397.94;5076266;28;20443;-81
2022/01/21 06:26:58;;;;;;;8.00;4.40;;;;;;;0.03;100.00;151378.63;5088289;28;20449;-80
2022/01/21 06:29:34;;;;;;;5.70;4.10;;;;;;;0.06;100.00;151385.06;5056356;28;20523;-81
2022/01/21 06:32:09;;;;;;;6.40;4.10;;;;;;;0.08;99.32;151390.22;5125211;27;20837;-81
2022/01/21 06:34:45;;;;;;;11.00;4.00;;;;;;;0.09;99.42;151394.06;5091415;28;20560;-81
2022/01/21 06:37:20;;;;;;;8.50;4.00;;;;;;;0.04;98.85;151379.94;5075322;28;20468;-81
2022/01/21 06:39:57;;;;;;;8.23;4.17;;;;;;;0.09;97.99;151394.06;5088992;28;20447;-81
2022/01/21 06:42:33;;;;;;;7.13;4.17;;;;;;;0.15;100.00;151408.19;5090922;28;20796;-81
2022/01/21 06:45:10;;;;;;;6.07;3.93;;;;;;;0.11;98.77;151397.94;5142750;27;20527;-81
2022/01/21 06:47:46;;;;;;;7.07;4.60;;;;;;;0.11;100.00;151399.16;5132625;27;20448;-81
2022/01/21 06:50:22;;;;;;;8.77;4.17;;;;;;;0.05;99.37;151382.50;5090680;28;20459;-81
2022/01/21 06:52:57;;;;;;;8.30;4.60;;;;;;;0.08;99.38;151390.22;5089524;28;20483;-81
2022/01/21 06:55:35;;;;;;;6.90;4.23;;;;;;;0.13;99.76;151403.06;5122412;27;21058;-81
2022/01/21 06:58:11;;;;;;;8.00;4.63;;;;;;;0.08;100.00;151390.22;5122554;27;20446;-80
2022/01/21 07:00:47;;;;;;;11.83;5.63;;;;;;;0.06;99.14;151386.34;5102575;28;20532;-81
2022/01/21 07:03:25;;;;;;;7.50;4.60;;;;;;;0.07;99.33;151387.63;5064836;28;20457;-81
2022/01/21 07:06:01;;;;;;;5.77;4.20;;;;;;;0.13;100.00;151403.06;5080322;28;20831;-81
2022/01/21 07:08:36;;;;;;;5.83;4.30;;;;;;;0.10;100.00;151395.34;5073367;28;20899;-81
2022/01/21 07:11:13;;;;;;;10.43;4.50;;;;;;;0.12;100.00;151400.47;5102968;27;20563;-81
2022/01/21 07:13:49;;;;;;;10.53;4.70;;;;;;;0.14;100.00;151405.59;5087976;28;20826;-81
2022/01/21 07:16:25;;;;;;;6.20;4.30;;;;;;;0.14;100.00;151405.59;5052505;28;20440;-81
2022/01/21 07:19:00;;;;;;;6.20;4.70;;;;;;;0.10;99.80;151396.63;5101509;28;20551;-81
2022/01/21 07:21:36;;;;;;;5.70;4.37;;;;;;;0.15;100.00;151408.19;5085377;28;20475;-81
2022/01/21 07:24:12;;;;;;;7.80;5.33;;;;;;;0.14;100.00;151406.88;5084923;28;20448;-81
2022/01/21 07:26:49;;;;;;;7.73;4.40;;;;;;;0.18;100.00;151415.88;5072463;28;20428;-81
2022/01/21 07:29:24;;;;;;;6.23;4.70;;;;;;;0.17;100.00;151413.28;5128756;27;20444;-81
2022/01/21 07:32:00;;;;;;;10.90;4.93;;;;;;;0.17;100.00;151414.59;5087426;28;20432;-81
2022/01/21 07:34:36;;;;;;;9.20;4.97;;;;;;;0.16;100.00;151412.00;5088123;28;20449;-81
2022/01/21 07:37:12;;;;;;;7.73;4.60;;;;;;;0.16;100.00;151410.75;5110360;28;20494;-81
2022/01/21 07:39:48;;;;;;;8.30;4.50;;;;;;;0.14;99.83;151405.59;5080429;28;20451;-81
2022/01/21 07:42:26;;;;;;;7.77;4.20;;;;;;;0.15;100.00;151408.19;5069463;28;20448;-81
2022/01/21 07:45:02;;;;;;;10.10;4.83;;;;;;;0.15;100.00;151408.19;5107478;28;20440;-81
2022/01/21 07:47:38;;;;;;;7.93;5.23;;;;;;;0.21;100.00;151423.59;5064800;28;20445;-81
2022/01/21 07:50:14;;;;;;;6.70;4.93;;;;;;;0.22;100.00;151427.41;5090127;28;20461;-81
2022/01/21 07:52:50;;;;;;;8.23;4.63;;;;;;;0.24;100.00;151431.28;5108683;28;20434;-80
2022/01/21 07:55:26;;;;;;;10.17;5.10;;;;;;;0.31;100.00;151450.53;5086951;28;20445;-81
2022/01/21 07:58:04;;;;;;;6.90;5.20;;;;;;;0.37;100.00;151465.91;5075739;28;20454;-81
2022/01/21 08:00:39;;;;;;;6.20;4.50;;;;;;;0.39;100.00;151469.78;5102241;28;20939;-81
2022/01/21 08:03:16;;;;;;;10.77;4.90;;;;;;;0.41;100.00;151474.91;5089631;28;20445;-81
2022/01/21 08:05:52;;;;;;;6.87;5.20;;;;;;;0.47;100.00;151490.34;5131257;27;20441;-81
2022/01/21 08:08:27;;;;;;;9.77;5.70;;;;;;;0.48;100.00;151492.88;5084704;28;20446;-81
2022/01/21 08:11:03;;;;;;;7.90;5.37;;;;;;;0.54;100.00;151508.28;5074577;28;20449;-80
2022/01/21 08:13:40;;;;;;;12.13;5.97;;;;;;;0.54;100.00;151508.28;5089012;28;20448;-80
2022/01/21 08:16:16;;;;;;;13.00;5.67;;;;;;;0.59;100.00;151521.13;5108376;28;20444;-80
2022/01/21 08:18:54;;;;;;;10.40;5.50;;;;;;;0.64;99.27;151532.72;5090023;28;20438;-80
2022/01/21 08:21:29;;;;;;;8.27;5.27;;;;;;;0.72;100.00;151554.50;5090212;28;20447;-80
2022/01/21 08:24:06;;;;;;;6.53;4.80;;;;;;;0.81;100.00;151576.34;5072816;28;20484;-80
2022/01/21 08:26:42;;;;;;;6.10;4.53;;;;;;;0.83;98.85;151581.47;5062361;28;20438;-80
2022/01/21 08:29:19;;;;;;;7.50;5.40;;;;;;;0.91;98.71;151603.31;5093070;28;20489;-80
2022/01/21 08:31:55;;;;;;;7.97;5.10;;;;;;;0.93;100.00;151607.13;5084230;28;20794;-80
2022/01/21 08:34:34;;;;;;;7.87;6.07;;;;;;;0.95;98.31;151613.59;5065607;28;20445;-80
2022/01/21 08:37:09;;;;;;;10.57;5.43;;;;;;;0.94;97.27;151611.03;5101877;28;20572;-80
2022/01/21 08:39:45;;;;;;;8.43;4.93;;;;;;;0.86;97.23;151589.19;5084962;28;20940;-80
2022/01/21 08:42:21;;;;;;;8.53;5.60;;;;;;;0.87;98.90;151593.06;5074285;28;20803;-81
2022/01/21 08:44:58;;;;;;;7.17;5.20;;;;;;;0.92;98.88;151605.91;5119030;27;20441;-81
2022/01/21 08:47:34;;;;;;;7.33;5.10;;;;;;;0.89;97.84;151598.19;5072844;28;20444;-80
2022/01/21 08:50:11;;;;;;;12.37;4.83;;;;;;;0.84;96.65;151584.06;5084795;28;20788;-81
2022/01/21 08:52:47;;;;;;;7.57;5.60;;;;;;;0.83;98.83;151582.75;5086431;28;20930;-81
2022/01/21 08:55:22;;;;;;;7.20;4.80;;;;;;;0.83;96.81;151582.75;5120520;27;20780;-81
2022/01/21 08:57:58;;;;;;;8.63;4.83;;;;;;;0.82;97.53;151580.16;5086071;28;20448;-81
2022/01/21 09:00:35;;;;;;;12.80;6.03;;;;;;;0.84;96.30;151585.34;5102796;28;20985;-81
2022/01/21 09:03:11;;;;;;;8.53;5.53;;;;;;;0.83;96.20;151581.47;5091015;28;20551;-80
2022/01/21 09:05:50;;;;;;;9.33;5.07;;;;;;;0.87;98.38;151593.06;5093148;28;20494;-81
2022/01/21 09:08:30;;;;;;;7.90;5.80;;;;;;;0.90;97.87;151600.72;5083274;28;20439;-81
2022/01/21 09:11:06;;;;;;;10.90;6.10;;;;;;;0.92;96.90;151604.59;5092654;28;20549;-80
2022/01/21 09:13:44;;;;;;;14.00;5.90;;;;;;;0.96;96.80;151616.16;5084951;28;20441;-81
2022/01/21 09:16:22;;;;;;;11.80;5.80;;;;;;;1.01;95.47;151628.97;5072227;28;20442;-80
2022/01/21 09:19:01;;;;;;;9.30;5.40;;;;;;;1.01;97.24;151628.97;5100211;28;20445;-81
2022/01/21 09:21:41;;;;;;;10.00;6.70;;;;;;;0.96;98.22;151616.16;5083643;28;20468;-81
2022/01/21 09:24:16;;;;;;;7.67;5.10;;;;;;;1.02;97.01;151631.56;5122338;27;20445;-81
2022/01/21 09:26:52;;;;;;;13.50;6.23;;;;;;;0.99;96.39;151622.56;5092823;28;20429;-80
2022/01/21 09:29:28;;;;;;;9.40;6.07;;;;;;;1.03;96.34;151634.09;5093188;28;20433;-80
2022/01/21 09:32:06;;;;;;;11.80;5.47;;;;;;;1.05;94.38;151639.28;5092721;28;20441;-80
2022/01/21 09:34:42;;;;;;;9.20;5.20;;;;;;;1.13;98.16;151658.53;5071461;28;20453;-80
2022/01/21 09:37:17;;;;;;;8.10;5.07;;;;;;;1.16;95.17;151666.25;5114649;27;20840;-80
2022/01/21 09:39:53;;;;;;;10.17;5.70;;;;;;;1.21;95.27;151680.41;5103758;28;20445;-80
2022/01/21 09:42:32;;;;;;;11.03;5.50;;;;;;;1.22;94.30;151682.94;5098348;28;20442;-80
2022/01/21 09:45:12;;;;;;;10.53;5.90;;;;;;;1.29;94.82;151698.38;5059069;28;20513;-81
2022/01/21 09:47:51;;;;;;;10.80;5.93;;;;;;;1.33;96.32;151708.63;5091614;28;20425;-80
2022/01/21 09:50:27;;;;;;;7.30;4.73;;;;;;;1.39;97.33;151724.03;5088039;28;20477;-80
2022/01/21 09:53:03;;;;;;;10.07;5.57;;;;;;;1.36;97.78;151716.31;5084781;28;20548;-80
2022/01/21 09:55:39;;;;;;;10.47;5.33;;;;;;;1.35;97.26;151715.03;5091826;28;20438;-80
2022/01/21 09:58:15;;;;;;;8.17;5.30;;;;;;;1.31;94.72;151704.78;5125792;27;20462;-80
2022/01/21 10:00:51;;;;;;;6.93;4.90;;;;;;;1.33;95.21;151708.63;5090897;28;20430;-80
2022/01/21 10:03:28;;;;;;;14.13;5.10;;;;;;;1.33;95.49;151709.91;5075620;28;20431;-80
2022/01/21 10:06:06;;;;;;;10.60;5.93;;;;;;;1.39;95.12;151724.03;5090280;28;20775;-80
2022/01/21 10:08:44;;;;;;;10.23;5.00;;;;;;;1.46;96.84;151742.00;5090318;28;20441;-80
2022/01/21 10:11:20;;;;;;;9.37;5.60;;;;;;;1.49;97.48;151749.72;5079842;28;21042;-80
2022/01/21 10:13:56;;;;;;;6.60;4.70;;;;;;;1.47;97.53;151744.59;5076126;28;20454;-80
2022/01/21 10:16:32;;;;;;;10.17;5.40;;;;;;;1.49;94.37;151749.72;5091458;28;20437;-80
2022/01/21 10:19:10;;;;;;;11.23;4.67;;;;;;;1.50;92.42;151752.31;5075706;28;20962;-79
2022/01/21 10:21:46;;;;;;;8.17;5.37;;;;;;;1.50;94.97;151753.63;5090582;28;20434;-80
2022/01/21 10:24:21;;;;;;;7.20;4.67;;;;;;;1.51;93.59;151754.91;5090730;28;20479;-79
2022/01/21 10:26:58;;;;;;;10.20;6.37;;;;;;;1.50;91.07;151752.31;5077249;28;20445;-79
2022/01/21 10:29:38;;;;;;;7.47;4.90;;;;;;;1.50;92.34;151753.63;5070956;28;20925;-80
2022/01/21 10:32:14;;;;;;;11.10;5.60;;;;;;;1.51;89.33;151754.91;5074574;28;20488;-80
2022/01/21 10:34:51;;;;;;;9.40;4.73;;;;;;;1.52;89.69;151757.44;5067011;28;20468;-80
2022/01/21 10:37:30;;;;;;;10.27;5.10;;;;;;;1.50;93.44;151752.31;5096344;28;20472;-80
2022/01/21 10:40:08;;;;;;;13.20;4.83;;;;;;;1.55;91.74;151765.16;5087793;28;20472;-80
2022/01/21 10:42:45;;;;;;;11.73;6.10;;;;;;;1.46;92.37;151743.31;5075160;28;20440;-80
2022/01/21 10:45:20;;;;;;;6.87;5.30;;;;;;;1.42;90.19;151731.75;5088701;28;20921;-80
2022/01/21 10:47:56;;;;;;;9.87;5.50;;;;;;;1.34;92.04;151711.19;5088838;28;20486;-80
2022/01/21 10:50:33;;;;;;;7.00;5.10;;;;;;;1.38;93.91;151721.50;5072453;28;20466;-80
2022/01/21 10:53:26;;;;;;;7.97;5.50;;;;;;;1.30;92.27;151702.19;5074304;28;20505;-80
2022/01/21 10:56:10;;;;;;;8.97;5.90;;;;;;;1.33;93.44;151709.91;5091058;28;20472;-80
2022/01/21 10:58:50;;;;;;;6.10;5.13;;;;;;;1.40;97.03;151727.94;5089067;28;20633;-80
2022/01/21 11:01:29;;;;;;;11.23;5.47;;;;;;;1.51;95.89;151754.91;5088546;28;20536;-80
2022/01/21 11:04:08;;;;;;;6.77;4.60;;;;;;;1.49;95.10;151749.72;5086237;28;20477;-80
2022/01/21 11:06:52;;;;;;;11.30;5.90;;;;;;;1.54;94.24;151762.56;5088589;28;20479;-80
2022/01/21 11:09:29;;;;;;;7.97;4.67;;;;;;;1.67;95.03;151795.97;5055720;28;20456;-80
2022/01/21 11:12:10;;;;;;;9.10;5.27;;;;;;;1.64;91.77;151788.31;5073458;28;20558;-80
2022/01/21 11:14:56;;;;;;;7.23;4.60;;;;;;;1.69;93.83;151801.16;5075583;28;20453;-80
2022/01/21 11:17:32;;;;;;;11.47;5.80;;;;;;;1.64;90.09;151788.31;5072622;28;20451;-80
2022/01/21 11:20:13;;;;;;;7.97;4.67;;;;;;;1.73;93.84;151811.41;5074260;28;20532;-80
2022/01/21 11:22:55;;;;;;;8.73;6.03;;;;;;;1.81;91.92;151832.00;5092263;28;20479;-80
2022/01/21 11:25:43;;;;;;;7.10;4.03;;;;;;;1.85;94.04;151843.53;5106314;27;20442;-80
2022/01/21 11:28:20;;;;;;;8.60;4.33;;;;;;;1.77;89.90;151822.97;5074963;28;20459;-80
2022/01/21 11:30:56;;;;;;;11.33;4.60;;;;;;;1.79;93.47;151826.84;5089990;28;20474;-80
2022/01/21 11:33:31;;;;;;;7.80;4.07;;;;;;;1.83;92.98;151838.41;5070606;28;20783;-80
2022/01/21 11:36:08;;;;;;;6.77;4.03;;;;;;;1.76;91.60;151819.13;5063270;28;20503;-80
2022/01/21 11:38:45;;;;;;;7.13;4.30;;;;;;;1.79;89.92;151826.84;5071057;28;20437;-80
2022/01/21 11:41:21;;;;;;;8.13;4.13;;;;;;;1.89;91.47;151852.56;5066308;28;20455;-80
2022/01/21 11:44:01;;;;;;;7.10;4.50;;;;;;;1.86;91.05;151844.84;5123223;28;20482;-80
2022/01/21 11:46:48;;;;;;;5.90;3.33;;;;;;;1.87;88.00;151847.41;5104969;28;20437;-80
2022/01/21 11:49:25;;;;;;;7.27;3.67;;;;;;;1.95;91.46;151868.00;5108898;27;20449;-80
2022/01/21 11:52:25;;;;;;;3.87;3.03;;;;;;;2.03;90.06;151888.56;5123029;28;20470;-80
2022/01/21 11:55:01;;;;;;;5.50;3.67;;;;;;;2.07;89.89;151898.81;5051434;28;20457;-80
2022/01/21 11:57:38;;;;;;;4.80;3.20;;;;;;;2.04;89.49;151891.09;5060454;28;20447;-80
2022/01/21 12:00:34;;;;;;;7.23;3.80;;;;;;;2.04;86.97;151891.09;5074079;28;20431;-80
2022/01/21 12:03:10;;;;;;;6.53;3.50;;;;;;;1.99;87.11;151878.25;5122367;28;20821;-80
2022/01/21 12:05:45;;;;;;;5.17;3.10;;;;;;;1.94;90.44;151865.41;5075468;28;20858;-80
2022/01/21 12:08:45;;;;;;;5.40;3.20;;;;;;;1.93;89.92;151862.88;5074773;28;20768;-80
2022/01/21 12:11:34;;;;;;;5.83;3.63;;;;;;;1.85;86.37;151842.28;5089374;28;20975;-80
2022/01/21 12:14:43;;;;;;;5.50;3.20;;;;;;;1.91;89.12;151856.44;5124119;28;20445;-80
2022/01/21 12:17:41;;;;;;;4.77;3.23;;;;;;;1.91;88.13;151857.69;5089719;28;20952;-80
2022/01/21 12:20:16;;;;;;;5.90;3.33;;;;;;;1.93;88.88;151862.88;5093773;28;20432;-80
2022/01/21 12:23:08;;;;;;;8.20;4.30;;;;;;;1.93;87.67;151862.88;5092286;28;20443;-80
2022/01/21 12:26:14;;;;;;;5.27;3.30;;;;;;;1.93;87.14;151862.88;5072341;28;20450;-80
2022/01/21 12:29:21;;;;;;;8.10;3.20;;;;;;;1.96;89.77;151869.28;5092916;28;20861;-80
2022/01/21 12:32:03;;;;;;;4.07;3.00;;;;;;;1.94;88.21;151864.09;5076362;28;20453;-80
2022/01/21 12:35:16;;;;;;;4.47;2.70;;;;;;;1.97;91.86;151873.13;5093789;28;20447;-80
2022/01/21 12:41:33;;;;;;;7.70;3.90;;;;;;;1.91;92.09;151857.69;5094579;28;20438;-80
2022/01/21 12:44:12;;;;;;;6.13;3.10;;;;;;;1.89;91.19;151852.56;5093240;28;20480;-80
2022/01/21 12:46:52;;;;;;;6.60;3.07;;;;;;;1.88;94.71;151849.97;5078202;28;20440;-80
2022/01/21 12:49:39;;;;;;;5.60;3.10;;;;;;;1.85;90.31;151843.53;5086097;28;20443;-80
2022/01/21 12:52:45;;;;;;;5.60;2.80;;;;;;;1.88;91.43;151849.97;5090110;28;20939;-80
2022/01/21 12:58:23;;;;;;;5.10;2.37;;;;;;;1.88;93.34;151848.72;5077384;28;20452;-80
2022/01/21 13:01:02;;;;;;;4.20;2.80;;;;;;;1.90;90.98;151855.16;5094447;28;20929;-80
2022/01/21 13:03:45;;;;;;;6.57;2.70;;;;;;;1.88;90.78;151849.97;5128410;27;20442;-80
2022/01/21 13:06:27;;;;;;;4.27;2.73;;;;;;;1.86;90.96;151844.84;5076981;28;20443;-80